Time;durP1;ratioP1;P1;durP2;ratioP2;P2;SDS_P1;SDS_P2;PMS_P1;PMS_P2;Temp;Humidity;BMP_temperature;BMP_pressure;BME280_temperature;BME280_humidity;BME280_pressure;Samples;Min_cycle;Max_cycle;Signal;HPM_P1;HPM_P2
2021/12/27 00:00:26;;;;;;;1.95;0.70;;;-4.90;53.80;;;;;;4184963;28;20516;-65
2021/12/27 00:02:27;;;;;;;1.92;0.60;;;-4.90;53.80;;;;;;4186616;28;20114;-65
2021/12/27 00:04:28;;;;;;;4.30;0.50;;;-5.00;53.80;;;;;;4183375;28;20020;-66
2021/12/27 00:06:30;;;;;;;1.67;0.40;;;-5.00;53.90;;;;;;4172251;28;20025;-65
2021/12/27 00:08:31;;;;;;;2.45;0.50;;;-5.00;53.90;;;;;;4187717;28;20029;-65
2021/12/27 00:10:31;;;;;;;3.58;0.60;;;-5.00;54.10;;;;;;4185057;28;20120;-65
2021/12/27 00:12:32;;;;;;;4.75;0.68;;;-5.10;54.00;;;;;;4189060;28;20444;-65
2021/12/27 00:14:33;;;;;;;4.03;0.70;;;-5.10;54.10;;;;;;4182983;28;20085;-64
2021/12/27 00:16:33;;;;;;;1.65;0.43;;;-5.10;54.20;;;;;;4187532;28;20502;-65
2021/12/27 00:18:34;;;;;;;2.03;0.70;;;-5.10;54.40;;;;;;4168808;28;20139;-65
2021/12/27 00:20:35;;;;;;;3.33;0.50;;;-5.10;54.60;;;;;;4187523;28;20079;-65
2021/12/27 00:22:36;;;;;;;1.98;0.63;;;-5.10;54.60;;;;;;4186197;28;20781;-65
2021/12/27 00:24:36;;;;;;;3.75;0.70;;;-5.10;54.80;;;;;;4183637;28;20021;-65
2021/12/27 00:26:37;;;;;;;3.58;0.68;;;-5.10;54.90;;;;;;4187379;28;20044;-64
2021/12/27 00:28:37;;;;;;;3.53;0.57;;;-5.10;54.80;;;;;;4185188;28;20055;-64
2021/12/27 00:30:38;;;;;;;2.80;0.77;;;-5.10;54.90;;;;;;4184161;28;20032;-65
2021/12/27 00:32:43;;;;;;;4.13;0.55;;;-5.10;54.70;;;;;;4168010;28;20047;-65
2021/12/27 00:34:43;;;;;;;2.28;0.73;;;-5.10;54.60;;;;;;4187810;28;20091;-64
2021/12/27 00:36:44;;;;;;;1.90;0.57;;;-5.10;54.70;;;;;;4184243;28;20036;-65
2021/12/27 00:38:44;;;;;;;1.63;0.50;;;-5.10;54.70;;;;;;4184790;28;20498;-64
2021/12/27 00:40:45;;;;;;;4.05;0.80;;;-5.10;54.60;;;;;;4185384;28;20041;-65
2021/12/27 00:42:46;;;;;;;1.23;0.65;;;-5.20;54.60;;;;;;4167322;28;20094;-65
2021/12/27 00:44:46;;;;;;;2.13;1.27;;;-5.20;54.50;;;;;;4185939;28;20096;-65
2021/12/27 00:46:47;;;;;;;1.58;0.60;;;-5.20;54.60;;;;;;4185707;28;20029;-65
2021/12/27 00:48:48;;;;;;;3.10;0.55;;;-5.20;54.60;;;;;;4186971;28;20033;-65
2021/12/27 00:50:48;;;;;;;1.75;0.73;;;-5.20;54.40;;;;;;4185741;28;20056;-65
2021/12/27 00:52:50;;;;;;;4.43;0.85;;;-5.20;54.40;;;;;;4167244;28;20029;-65
2021/12/27 00:54:50;;;;;;;2.47;0.70;;;-5.10;54.60;;;;;;4163904;28;20025;-65
2021/12/27 00:56:51;;;;;;;3.83;0.90;;;-5.10;54.70;;;;;;4187108;28;20036;-65
2021/12/27 00:58:51;;;;;;;7.75;0.98;;;-5.10;54.60;;;;;;4184974;28;20514;-65
2021/12/27 01:00:52;;;;;;;1.90;0.70;;;-5.10;55.30;;;;;;4182023;28;20101;-65
2021/12/27 01:02:55;;;;;;;4.63;0.98;;;-5.10;54.70;;;;;;4187171;28;20476;-65
2021/12/27 01:04:56;;;;;;;1.77;0.75;;;-5.00;54.60;;;;;;4184552;28;20042;-65
2021/12/27 01:06:57;;;;;;;2.00;0.70;;;-5.00;54.70;;;;;;4186388;28;20411;-65
2021/12/27 01:08:57;;;;;;;2.53;0.82;;;-5.00;54.50;;;;;;4189072;28;20125;-65
2021/12/27 01:11:12;;;;;;;2.75;0.90;;;-5.00;54.70;;;;;;4181506;28;20024;-65
2021/12/27 01:17:21;;;;;;;2.58;0.82;;;-5.00;54.70;;;;;;4185621;28;20487;-65
2021/12/27 01:19:22;;;;;;;0.95;0.52;;;-5.00;54.80;;;;;;4186197;28;20127;-65
2021/12/27 01:21:23;;;;;;;3.42;0.70;;;-4.90;54.70;;;;;;4185496;28;20032;-66
2021/12/27 01:23:23;;;;;;;5.07;0.98;;;-4.90;54.80;;;;;;4185688;28;20107;-65
2021/12/27 01:25:24;;;;;;;4.18;0.90;;;-4.90;54.80;;;;;;4184818;28;20060;-66
2021/12/27 01:27:25;;;;;;;8.27;1.00;;;-4.90;54.70;;;;;;4187406;28;20053;-66
2021/12/27 01:29:26;;;;;;;3.28;1.10;;;-4.90;54.60;;;;;;4184736;28;20033;-65
2021/12/27 01:31:26;;;;;;;9.90;1.20;;;-4.90;54.60;;;;;;4167659;28;20100;-65
2021/12/27 01:33:27;;;;;;;7.07;1.20;;;-4.90;54.60;;;;;;4182841;28;20489;-66
2021/12/27 01:35:28;;;;;;;7.82;1.02;;;-4.90;54.70;;;;;;4184696;28;20021;-66
2021/12/27 01:37:28;;;;;;;5.65;0.93;;;-5.00;54.80;;;;;;4183765;28;20128;-66
2021/12/27 01:39:29;;;;;;;2.97;1.08;;;-5.00;54.80;;;;;;4183457;28;20074;-65
2021/12/27 01:41:29;;;;;;;3.08;0.90;;;-5.00;55.00;;;;;;4185868;28;20604;-66
2021/12/27 01:43:32;;;;;;;1.90;0.90;;;-5.00;55.20;;;;;;4184340;28;20035;-66
2021/12/27 01:45:34;;;;;;;10.25;1.38;;;-5.00;55.30;;;;;;4185058;28;20021;-66
2021/12/27 01:47:35;;;;;;;3.80;1.00;;;-5.00;55.50;;;;;;4168289;28;20033;-66
2021/12/27 01:49:37;;;;;;;2.47;1.23;;;-5.00;55.60;;;;;;4182227;28;20025;-66
2021/12/27 01:51:39;;;;;;;2.88;0.90;;;-5.00;55.60;;;;;;4187142;28;20116;-66
2021/12/27 01:53:41;;;;;;;2.47;0.90;;;-5.10;55.60;;;;;;4183204;28;20109;-66
2021/12/27 01:55:42;;;;;;;3.45;1.10;;;-5.10;55.70;;;;;;4188433;28;20438;-66
2021/12/27 01:57:42;;;;;;;6.10;1.00;;;-5.10;55.70;;;;;;4181834;28;20021;-66
2021/12/27 01:59:43;;;;;;;6.63;1.08;;;-5.10;55.80;;;;;;4186351;28;20031;-66
2021/12/27 02:01:44;;;;;;;7.38;1.10;;;-5.10;56.00;;;;;;4185424;28;20058;-66
2021/12/27 02:03:44;;;;;;;4.25;1.00;;;-5.10;56.20;;;;;;4185989;28;20052;-66
2021/12/27 02:05:45;;;;;;;10.80;1.30;;;-5.10;56.30;;;;;;4185595;28;20294;-66
2021/12/27 02:07:46;;;;;;;5.80;1.30;;;-5.10;56.50;;;;;;4190848;28;20025;-66
2021/12/27 02:09:58;;;;;;;4.80;1.35;;;-5.10;56.60;;;;;;4185245;28;20052;-66
2021/12/27 02:11:58;;;;;;;5.90;0.98;;;-5.20;56.80;;;;;;4187614;28;20473;-65
2021/12/27 02:14:03;;;;;;;4.20;1.50;;;-5.10;57.00;;;;;;4187302;28;20036;-65
2021/12/27 02:16:05;;;;;;;4.10;1.23;;;-5.10;57.20;;;;;;4187891;28;20032;-65
2021/12/27 02:18:08;;;;;;;8.45;1.15;;;-5.10;57.30;;;;;;4189181;28;20105;-66
2021/12/27 02:20:20;;;;;;;5.60;1.35;;;-5.10;57.40;;;;;;4185121;28;20399;-65
2021/12/27 02:22:21;;;;;;;6.07;1.52;;;-5.10;57.50;;;;;;4186876;22;20472;-66
2021/12/27 02:24:22;;;;;;;5.90;1.10;;;-5.10;57.70;;;;;;4170486;28;20067;-67
2021/12/27 02:26:23;;;;;;;3.97;1.10;;;-5.10;57.80;;;;;;4171684;28;20041;-67
2021/12/27 02:28:23;;;;;;;2.28;0.88;;;-5.10;57.90;;;;;;4174707;28;20052;-67
2021/12/27 02:30:24;;;;;;;8.63;1.38;;;-5.10;58.00;;;;;;4169371;28;20087;-66
2021/12/27 02:32:25;;;;;;;9.75;1.80;;;-5.10;58.10;;;;;;4174946;28;20037;-66
2021/12/27 02:34:25;;;;;;;8.82;1.67;;;-5.10;58.20;;;;;;4176198;28;20384;-67
2021/12/27 02:36:26;;;;;;;4.90;1.02;;;-5.00;58.40;;;;;;4170947;28;20036;-67
2021/12/27 02:38:29;;;;;;;3.38;1.20;;;-5.00;58.40;;;;;;4175264;28;20156;-66
2021/12/27 02:40:30;;;;;;;9.63;1.23;;;-5.00;58.50;;;;;;4172065;28;20060;-66
2021/12/27 02:42:31;;;;;;;5.38;1.60;;;-4.90;58.60;;;;;;4177292;28;20552;-67
2021/12/27 02:44:34;;;;;;;3.95;1.30;;;-4.90;58.60;;;;;;4173792;28;21472;-67
2021/12/27 02:46:34;;;;;;;9.90;1.70;;;-4.90;58.60;;;;;;4169965;28;20557;-66
2021/12/27 02:48:38;;;;;;;8.38;1.83;;;-4.90;58.60;;;;;;4174822;28;20028;-65
2021/12/27 02:50:39;;;;;;;7.40;1.45;;;-4.90;58.60;;;;;;4174653;28;20036;-67
2021/12/27 02:52:40;;;;;;;4.20;1.42;;;-4.80;58.70;;;;;;4175019;28;20315;-67
2021/12/27 02:54:41;;;;;;;5.03;1.70;;;-4.80;58.70;;;;;;4169938;28;20095;-66
2021/12/27 02:56:42;;;;;;;4.93;1.70;;;-4.80;58.80;;;;;;4173468;28;20029;-66
2021/12/27 02:58:43;;;;;;;3.80;1.33;;;-4.80;58.80;;;;;;4169987;28;20094;-67
2021/12/27 03:00:47;;;;;;;4.00;1.50;;;-4.70;58.80;;;;;;4170334;28;20450;-66
2021/12/27 03:02:48;;;;;;;4.70;1.70;;;-4.70;58.70;;;;;;4169407;28;20092;-66
2021/12/27 03:04:49;;;;;;;5.63;1.63;;;-4.70;58.60;;;;;;4173847;28;20496;-66
2021/12/27 03:06:50;;;;;;;7.65;1.50;;;-4.70;58.40;;;;;;4167170;28;20036;-66
2021/12/27 03:08:51;;;;;;;8.68;1.92;;;-4.70;58.40;;;;;;4173380;28;20037;-66
2021/12/27 03:10:54;;;;;;;4.15;1.70;;;-4.60;58.10;;;;;;4172039;28;20448;-66
2021/12/27 03:12:55;;;;;;;9.48;2.22;;;-4.60;58.00;;;;;;4166235;28;20041;-66
2021/12/27 03:14:55;;;;;;;15.32;2.28;;;-4.60;57.70;;;;;;4178737;28;20048;-66
2021/12/27 03:16:56;;;;;;;8.07;2.00;;;-4.60;57.30;;;;;;4172460;28;20021;-66
2021/12/27 03:18:57;;;;;;;7.78;1.77;;;-4.60;57.10;;;;;;4171492;28;20385;-67
2021/12/27 03:20:57;;;;;;;7.85;1.98;;;-4.60;57.00;;;;;;4170565;28;20083;-67
2021/12/27 03:22:58;;;;;;;4.38;1.58;;;-4.60;57.00;;;;;;4164684;28;20649;-66
2021/12/27 03:24:59;;;;;;;8.48;1.88;;;-4.70;57.10;;;;;;4169491;28;20037;-66
2021/12/27 03:26:59;;;;;;;6.47;2.05;;;-4.70;57.10;;;;;;4172093;28;20037;-67
2021/12/27 03:29:00;;;;;;;8.60;2.88;;;-4.70;57.20;;;;;;4176622;28;20081;-66
2021/12/27 03:31:01;;;;;;;10.48;2.60;;;-4.70;57.30;;;;;;4169950;28;20031;-66
2021/12/27 03:33:02;;;;;;;8.13;2.50;;;-4.70;57.30;;;;;;4168152;28;20032;-66
2021/12/27 03:35:10;;;;;;;8.18;2.20;;;-4.70;57.40;;;;;;4168772;28;20033;-69
2021/12/27 03:37:10;;;;;;;13.88;2.45;;;-4.70;57.60;;;;;;4165679;28;20581;-66
2021/12/27 03:39:11;;;;;;;8.23;2.38;;;-4.70;57.70;;;;;;4170044;28;20099;-66
2021/12/27 03:41:14;;;;;;;5.60;1.77;;;-4.80;57.70;;;;;;4172653;28;20314;-66
2021/12/27 03:43:15;;;;;;;12.90;2.15;;;-4.70;57.90;;;;;;4165443;28;20032;-66
2021/12/27 03:45:29;;;;;;;9.02;2.22;;;-4.80;58.00;;;;;;4171291;28;20250;-67
2021/12/27 03:47:30;;;;;;;7.68;2.53;;;-4.80;58.20;;;;;;4172739;28;20053;-66
2021/12/27 03:49:31;;;;;;;8.05;2.28;;;-4.80;58.40;;;;;;4170130;28;20091;-67
2021/12/27 03:51:31;;;;;;;10.23;3.00;;;-4.80;58.50;;;;;;4171247;28;20034;-66
2021/12/27 03:53:33;;;;;;;7.63;2.30;;;-4.80;58.60;;;;;;4168832;28;20037;-66
2021/12/27 03:55:34;;;;;;;14.40;3.05;;;-4.80;58.60;;;;;;4171333;28;20554;-66
2021/12/27 03:57:36;;;;;;;9.45;2.17;;;-4.80;58.70;;;;;;4170316;28;20347;-66
2021/12/27 04:01:58;;;;;;;9.45;2.75;;;-4.90;58.80;;;;;;4161611;28;20037;-67
2021/12/27 04:03:58;;;;;;;9.73;2.70;;;-4.90;58.80;;;;;;4164835;28;20036;-66
2021/12/27 04:05:59;;;;;;;15.20;3.05;;;-4.90;58.80;;;;;;4163082;28;21998;-66
2021/12/27 04:08:02;;;;;;;9.77;3.00;;;-4.90;58.70;;;;;;4162805;28;20393;-66
2021/12/27 04:10:04;;;;;;;;;;;-4.90;58.70;;;;;;4172460;28;20548;-66
2021/12/27 04:12:05;;;;;;;8.93;2.72;;;-4.90;58.80;;;;;;4165925;28;20607;-65
2021/12/27 04:14:05;;;;;;;11.40;3.15;;;-4.90;58.80;;;;;;4166120;28;20067;-66
2021/12/27 04:16:06;;;;;;;9.48;2.65;;;-4.90;58.80;;;;;;4172513;28;20036;-66
2021/12/27 04:18:09;;;;;;;12.15;3.35;;;-4.90;58.80;;;;;;4170264;28;20114;-66
2021/12/27 04:20:10;;;;;;;8.55;2.85;;;-4.90;58.90;;;;;;4167147;28;20138;-65
2021/12/27 04:22:11;;;;;;;9.75;3.10;;;-4.80;59.10;;;;;;4171444;28;20028;-66
2021/12/27 04:24:12;;;;;;;9.80;2.58;;;-4.80;59.20;;;;;;4165269;28;20056;-66
2021/12/27 04:26:13;;;;;;;12.05;3.47;;;-4.80;59.40;;;;;;4168948;28;20021;-66
2021/12/27 04:28:15;;;;;;;11.80;3.45;;;-4.80;59.50;;;;;;4168642;28;20100;-65
2021/12/27 04:30:16;;;;;;;14.80;3.67;;;-4.80;59.80;;;;;;4164145;28;20095;-65
2021/12/27 04:32:17;;;;;;;10.48;3.38;;;-4.80;59.90;;;;;;4173312;28;20284;-66
2021/12/27 04:34:17;;;;;;;11.23;3.25;;;-4.70;60.10;;;;;;4167100;28;20063;-66
2021/12/27 04:36:18;;;;;;;14.02;3.33;;;-4.70;60.30;;;;;;4167305;28;20224;-65
2021/12/27 04:38:19;;;;;;;14.00;4.10;;;-4.70;60.60;;;;;;4174240;28;20036;-65
2021/12/27 04:40:20;;;;;;;10.15;3.58;;;-4.60;60.80;;;;;;4175388;28;20029;-65
2021/12/27 04:42:21;;;;;;;12.38;3.30;;;-4.60;61.00;;;;;;4174603;28;20359;-66
2021/12/27 04:44:21;;;;;;;11.40;4.03;;;-4.50;61.30;;;;;;4166670;28;20219;-65
2021/12/27 04:46:22;;;;;;;14.40;3.80;;;-4.50;61.20;;;;;;4170498;28;20032;-65
2021/12/27 04:48:23;;;;;;;10.75;3.47;;;-4.50;61.40;;;;;;4165759;28;21226;-65
2021/12/27 04:50:25;;;;;;;13.25;4.40;;;-4.50;61.40;;;;;;4169585;28;20045;-65
2021/12/27 04:52:25;;;;;;;10.18;3.50;;;-4.40;61.60;;;;;;4170248;28;20040;-65
2021/12/27 04:54:26;;;;;;;13.93;4.00;;;-4.40;61.60;;;;;;4169327;28;20021;-65
2021/12/27 04:56:27;;;;;;;14.13;4.03;;;-4.40;61.60;;;;;;4168639;28;20037;-66
2021/12/27 04:58:27;;;;;;;11.90;3.95;;;-4.40;61.60;;;;;;4172408;28;20463;-65
2021/12/27 05:00:29;;;;;;;9.88;3.45;;;-4.40;61.60;;;;;;4164222;28;20613;-65
2021/12/27 05:02:29;;;;;;;16.50;3.92;;;-4.40;61.50;;;;;;4171037;28;20060;-65
2021/12/27 05:04:30;;;;;;;12.38;3.67;;;-4.30;61.50;;;;;;4171299;28;20062;-65
2021/12/27 05:06:31;;;;;;;11.55;3.28;;;-4.30;61.40;;;;;;4172708;28;20032;-65
2021/12/27 05:08:31;;;;;;;10.50;3.63;;;-4.30;61.20;;;;;;4172448;28;20029;-65
2021/12/27 05:10:32;;;;;;;11.68;4.15;;;-4.30;61.20;;;;;;4164387;28;20326;-64
2021/12/27 05:12:33;;;;;;;13.65;3.80;;;-4.20;61.00;;;;;;4170679;28;20024;-65
2021/12/27 05:14:33;;;;;;;12.50;4.45;;;-4.20;60.70;;;;;;4169258;28;20036;-64
2021/12/27 05:16:34;;;;;;;11.70;3.60;;;-4.20;60.70;;;;;;4171482;28;20531;-65
2021/12/27 05:18:35;;;;;;;12.25;3.45;;;-4.20;60.50;;;;;;4174316;28;20120;-65
2021/12/27 05:20:36;;;;;;;17.73;4.35;;;-4.20;60.30;;;;;;4168292;28;20406;-65
2021/12/27 05:22:37;;;;;;;10.63;3.75;;;-4.10;60.20;;;;;;4170298;28;20029;-65
2021/12/27 05:24:37;;;;;;;15.02;5.03;;;-4.10;59.90;;;;;;4169537;28;20041;-64
2021/12/27 05:26:38;;;;;;;15.63;3.58;;;-4.10;59.70;;;;;;4170223;28;20024;-65
2021/12/27 05:28:38;;;;;;;15.60;3.88;;;-4.10;59.60;;;;;;4167150;28;20031;-65
2021/12/27 05:30:41;;;;;;;21.52;4.00;;;-4.10;59.60;;;;;;4168248;28;20021;-66
2021/12/27 05:32:43;;;;;;;13.27;3.70;;;-4.10;59.50;;;;;;4173039;28;20507;-66
2021/12/27 05:34:43;;;;;;;18.27;4.43;;;-4.10;59.50;;;;;;4175455;28;20043;-65
2021/12/27 05:36:44;;;;;;;16.77;4.03;;;-4.10;59.50;;;;;;4164454;28;20044;-65
2021/12/27 05:38:45;;;;;;;13.25;3.65;;;-4.10;59.50;;;;;;4169514;28;20586;-65
2021/12/27 05:40:45;;;;;;;11.50;3.58;;;-4.10;59.50;;;;;;4173419;28;20473;-65
2021/12/27 05:42:46;;;;;;;12.68;3.53;;;-4.10;59.40;;;;;;4174724;28;20024;-65
2021/12/27 05:44:47;;;;;;;13.88;3.85;;;-4.10;59.40;;;;;;4169674;28;20024;-65
2021/12/27 05:46:47;;;;;;;9.75;3.92;;;-4.10;59.50;;;;;;4171765;28;20032;-65
2021/12/27 05:48:48;;;;;;;10.40;3.40;;;-4.10;59.50;;;;;;4176175;28;20020;-66
2021/12/27 05:50:48;;;;;;;13.98;3.83;;;-4.10;59.60;;;;;;4172283;28;20028;-66
2021/12/27 05:52:49;;;;;;;16.63;3.85;;;-4.10;59.80;;;;;;4171638;28;20093;-66
2021/12/27 05:54:50;;;;;;;14.75;4.75;;;-4.10;60.00;;;;;;4170751;28;20541;-65
2021/12/27 05:56:50;;;;;;;14.32;4.57;;;-4.00;60.40;;;;;;4169809;28;20025;-65
2021/12/27 05:58:51;;;;;;;15.90;3.65;;;-4.00;60.70;;;;;;4174153;28;20487;-65
2021/12/27 06:00:52;;;;;;;13.90;3.92;;;-4.00;61.00;;;;;;4167611;28;20028;-65
2021/12/27 06:02:54;;;;;;;18.90;3.67;;;-3.90;61.30;;;;;;4174009;28;20532;-65
2021/12/27 06:04:55;;;;;;;15.75;3.75;;;-3.90;61.60;;;;;;4170833;28;20025;-66
2021/12/27 06:06:56;;;;;;;15.68;4.18;;;-3.80;62.00;;;;;;4169331;28;20021;-65
2021/12/27 06:08:57;;;;;;;9.38;3.53;;;-3.80;62.20;;;;;;4174064;28;20028;-65
2021/12/27 06:10:57;;;;;;;11.60;3.72;;;-3.70;62.50;;;;;;4169246;28;20484;-65
2021/12/27 06:12:58;;;;;;;14.45;4.57;;;-3.60;62.80;;;;;;4166677;28;20029;-66
2021/12/27 06:14:58;;;;;;;14.00;3.50;;;-3.60;62.90;;;;;;4171590;28;20055;-65
2021/12/27 06:16:59;;;;;;;17.20;4.35;;;-3.50;63.10;;;;;;4168083;28;20169;-65
2021/12/27 06:19:00;;;;;;;14.32;3.83;;;-3.50;63.10;;;;;;4174306;28;20346;-65
2021/12/27 06:21:00;;;;;;;9.50;3.63;;;-3.40;63.90;;;;;;4175285;28;20055;-65
2021/12/27 06:23:01;;;;;;;13.20;4.25;;;-3.30;63.20;;;;;;4170351;28;20163;-65
2021/12/27 06:25:03;;;;;;;13.50;3.97;;;-3.30;63.20;;;;;;4173591;28;20035;-65
2021/12/27 06:27:04;;;;;;;16.43;4.40;;;-3.20;63.20;;;;;;4174396;28;20555;-65
2021/12/27 06:29:05;;;;;;;11.57;4.47;;;-3.20;63.30;;;;;;4174386;28;20059;-65
2021/12/27 06:31:05;;;;;;;19.80;4.13;;;-3.20;63.30;;;;;;4164014;28;20444;-64
2021/12/27 06:33:07;;;;;;;14.40;5.30;;;-3.10;63.40;;;;;;4171520;28;20032;-65
2021/12/27 06:35:10;;;;;;;17.25;4.80;;;-3.10;63.30;;;;;;4170195;28;20137;-65
2021/12/27 06:37:11;;;;;;;;;;;-3.00;63.40;;;;;;4172937;28;20113;-65
2021/12/27 06:39:11;;;;;;;15.45;4.80;;;-2.90;63.50;;;;;;4174690;28;20360;-64
2021/12/27 06:41:12;;;;;;;11.65;4.05;;;-2.90;63.20;;;;;;4173376;28;20029;-65
2021/12/27 06:43:13;;;;;;;12.82;4.25;;;-2.80;63.20;;;;;;4170632;28;20048;-65
2021/12/27 06:45:17;;;;;;;17.55;5.32;;;-2.80;63.10;;;;;;4170931;28;20081;-65
2021/12/27 06:47:17;;;;;;;12.73;4.22;;;-2.70;63.20;;;;;;4171491;28;20040;-66
2021/12/27 06:49:18;;;;;;;14.93;5.75;;;-2.70;63.00;;;;;;4173554;28;20668;-65
2021/12/27 06:51:19;;;;;;;21.63;5.20;;;-2.70;62.90;;;;;;4167488;28;20037;-66
2021/12/27 06:53:20;;;;;;;12.30;4.45;;;-2.60;62.90;;;;;;4168450;28;20493;-65
2021/12/27 06:55:21;;;;;;;19.20;4.78;;;-2.60;62.50;;;;;;4170633;28;20037;-65
2021/12/27 06:57:21;;;;;;;15.63;4.07;;;-2.60;62.40;;;;;;4170129;28;20481;-65
2021/12/27 06:59:22;;;;;;;16.27;4.85;;;-2.50;62.20;;;;;;4173257;28;20336;-65
2021/12/27 07:01:22;;;;;;;13.57;4.55;;;-2.50;62.00;;;;;;4169015;28;20024;-65
2021/12/27 07:03:23;;;;;;;9.43;4.03;;;-2.50;61.90;;;;;;4166509;28;20485;-66
2021/12/27 07:05:24;;;;;;;16.63;4.57;;;-2.50;61.90;;;;;;4173696;28;20037;-66
2021/12/27 07:07:24;;;;;;;14.80;4.72;;;-2.40;61.90;;;;;;4178080;28;20397;-66
2021/12/27 07:09:25;;;;;;;13.38;4.32;;;-2.40;62.00;;;;;;4165422;28;20104;-65
2021/12/27 07:11:26;;;;;;;14.70;4.72;;;-2.40;61.90;;;;;;4171385;28;21560;-65
2021/12/27 07:13:26;;;;;;;15.23;4.75;;;-2.40;62.10;;;;;;4167535;28;20131;-65
2021/12/27 07:15:27;;;;;;;13.93;4.72;;;-2.40;62.20;;;;;;4173461;28;20029;-65
2021/12/27 07:17:27;;;;;;;14.77;5.43;;;-2.40;62.20;;;;;;4168199;28;20040;-65
2021/12/27 07:19:28;;;;;;;12.68;5.03;;;-2.40;62.20;;;;;;4168461;28;20465;-65
2021/12/27 07:21:29;;;;;;;20.92;5.10;;;-2.30;62.40;;;;;;4168420;28;20037;-65
2021/12/27 07:23:29;;;;;;;16.17;4.57;;;-2.30;62.40;;;;;;4163619;28;20032;-65
2021/12/27 07:25:30;;;;;;;19.58;5.55;;;-2.30;62.40;;;;;;4169642;28;20400;-65
2021/12/27 07:27:30;;;;;;;22.40;5.57;;;-2.30;62.50;;;;;;4165410;28;20026;-65
2021/12/27 07:29:31;;;;;;;16.58;5.18;;;-2.30;62.40;;;;;;4167934;28;20045;-65
2021/12/27 07:31:32;;;;;;;13.60;5.05;;;-2.20;62.50;;;;;;4164752;28;20041;-65
2021/12/27 07:33:32;;;;;;;18.48;5.65;;;-2.20;62.40;;;;;;4166327;28;20313;-65
2021/12/27 07:35:33;;;;;;;18.65;5.05;;;-2.20;62.40;;;;;;4166661;28;20397;-66
2021/12/27 07:37:33;;;;;;;18.77;6.25;;;-2.20;62.40;;;;;;4162312;28;20727;-66
2021/12/27 07:39:34;;;;;;;21.23;5.68;;;-2.20;62.40;;;;;;4161594;28;20037;-66
2021/12/27 07:41:35;;;;;;;13.02;4.93;;;-2.20;62.50;;;;;;4163411;28;20116;-66
2021/12/27 07:43:35;;;;;;;16.65;5.15;;;-2.20;62.60;;;;;;4164074;28;20053;-66
2021/12/27 07:45:36;;;;;;;18.65;6.22;;;-2.10;62.80;;;;;;4163571;28;20119;-66
2021/12/27 07:47:36;;;;;;;16.95;5.85;;;-2.20;62.90;;;;;;4165526;28;20025;-66
2021/12/27 07:49:39;;;;;;;20.23;6.13;;;-2.10;63.00;;;;;;4168330;28;20291;-66
2021/12/27 07:51:40;;;;;;;23.20;7.05;;;-2.10;63.20;;;;;;4171099;28;20017;-67
2021/12/27 07:53:40;;;;;;;19.63;5.57;;;-2.10;63.30;;;;;;4166526;28;20021;-66
2021/12/27 07:55:41;;;;;;;16.30;6.03;;;-2.10;63.40;;;;;;4167047;28;20021;-66
2021/12/27 07:57:42;;;;;;;15.57;5.47;;;-2.10;63.50;;;;;;4168292;28;20034;-66
2021/12/27 07:59:47;;;;;;;21.40;6.25;;;-2.10;63.60;;;;;;4167567;28;20075;-66
2021/12/27 08:01:48;;;;;;;22.27;6.80;;;-2.10;63.60;;;;;;4171649;28;20043;-66
2021/12/27 08:03:48;;;;;;;27.20;7.47;;;-2.10;63.70;;;;;;4170664;28;20112;-66
2021/12/27 08:05:49;;;;;;;21.50;6.45;;;-2.10;63.90;;;;;;4167108;28;20048;-66
2021/12/27 08:07:50;;;;;;;19.83;6.95;;;-2.10;63.90;;;;;;4165962;28;20407;-66
2021/12/27 08:09:50;;;;;;;22.67;6.53;;;-2.10;63.90;;;;;;4167948;28;20091;-66
2021/12/27 08:11:51;;;;;;;22.98;7.07;;;-2.10;63.90;;;;;;4172933;28;20507;-66
2021/12/27 08:13:52;;;;;;;22.90;7.28;;;-2.10;64.70;;;;;;4166176;28;20488;-66
2021/12/27 08:15:52;;;;;;;21.70;7.38;;;-2.10;64.00;;;;;;4169608;28;20120;-66
2021/12/27 08:17:53;;;;;;;27.38;8.15;;;-2.10;64.00;;;;;;4163542;28;20501;-66
2021/12/27 08:19:54;;;;;;;24.65;7.43;;;-2.10;64.10;;;;;;4174537;28;20074;-66
2021/12/27 08:24:01;;;;;;;32.58;7.68;;;-2.10;64.40;;;;;;4166387;28;20049;-67
2021/12/27 08:26:02;;;;;;;27.52;8.00;;;-2.10;64.40;;;;;;4170692;28;20083;-66
2021/12/27 08:28:03;;;;;;;18.90;7.00;;;-2.10;64.50;;;;;;4167022;28;20025;-67
2021/12/27 08:30:05;;;;;;;19.52;7.70;;;-2.10;64.70;;;;;;4159561;28;20405;-67
2021/12/27 08:32:06;;;;;;;23.67;7.43;;;-2.10;64.80;;;;;;4161547;28;20032;-66
2021/12/27 08:34:06;;;;;;;25.58;8.25;;;-2.10;64.80;;;;;;4160641;28;20077;-67
2021/12/27 08:36:07;;;;;;;26.50;8.00;;;-2.00;64.90;;;;;;4164916;28;20028;-66
2021/12/27 08:38:08;;;;;;;27.00;7.55;;;-2.00;64.90;;;;;;4159795;28;20488;-66
2021/12/27 08:40:09;;;;;;;26.83;7.95;;;-2.00;64.90;;;;;;4161206;28;20033;-67
2021/12/27 08:42:11;;;;;;;23.75;8.07;;;-2.00;64.80;;;;;;4162018;28;20615;-67
2021/12/27 08:44:11;;;;;;;26.77;8.20;;;-2.00;64.90;;;;;;4163330;28;20037;-67
2021/12/27 08:46:12;;;;;;;28.92;8.40;;;-2.00;64.90;;;;;;4164274;28;20047;-67
2021/12/27 08:48:13;;;;;;;31.58;9.02;;;-2.00;65.00;;;;;;4163876;28;20029;-67
2021/12/27 08:50:17;;;;;;;36.85;8.65;;;-2.00;65.20;;;;;;4161530;28;20052;-67
2021/12/27 08:52:17;;;;;;;23.95;8.68;;;-2.00;66.00;;;;;;4161383;28;20116;-66
2021/12/27 08:54:18;;;;;;;36.78;8.82;;;-2.00;65.30;;;;;;4161741;28;20066;-67
2021/12/27 08:56:19;;;;;;;21.35;8.05;;;-2.00;65.30;;;;;;4157101;28;20082;-66
2021/12/27 08:58:20;;;;;;;27.27;8.52;;;-2.00;65.40;;;;;;4154539;28;20043;-67
2021/12/27 09:00:20;;;;;;;28.67;9.07;;;-1.90;65.30;;;;;;4156568;28;20444;-66
2021/12/27 09:02:21;;;;;;;27.25;8.77;;;-2.00;65.20;;;;;;4158982;28;20043;-67
2021/12/27 09:04:23;;;;;;;30.27;9.07;;;-1.90;66.00;;;;;;4159987;28;20115;-67
2021/12/27 09:06:23;;;;;;;22.55;8.05;;;-2.00;65.90;;;;;;4162688;28;20458;-67
2021/12/27 09:08:24;;;;;;;30.88;9.20;;;-2.00;65.00;;;;;;4160930;28;20447;-66
2021/12/27 09:10:24;;;;;;;30.85;9.25;;;-2.00;65.10;;;;;;4159768;28;20127;-66
2021/12/27 09:12:25;;;;;;;26.50;9.27;;;-2.00;65.10;;;;;;4156832;28;20025;-67
2021/12/27 09:14:26;;;;;;;30.00;9.00;;;-2.00;65.30;;;;;;4158104;28;20037;-67
2021/12/27 09:16:27;;;;;;;32.47;9.93;;;-2.00;65.40;;;;;;4157750;28;20465;-70
2021/12/27 09:18:28;;;;;;;34.33;10.38;;;-2.00;65.60;;;;;;4155576;28;20064;-68
2021/12/27 09:20:29;;;;;;;36.83;10.40;;;-2.00;65.80;;;;;;4161820;28;20489;-67
2021/12/27 09:22:30;;;;;;;34.92;10.07;;;-2.00;66.30;;;;;;4163997;28;20063;-67
2021/12/27 09:24:31;;;;;;;30.70;9.63;;;-2.00;66.00;;;;;;4161732;28;20033;-68
2021/12/27 09:26:32;;;;;;;35.97;11.68;;;-1.90;66.20;;;;;;4161217;28;20469;-68
2021/12/27 09:28:32;;;;;;;31.95;10.15;;;-1.90;66.30;;;;;;4156652;28;20029;-68
2021/12/27 09:30:33;;;;;;;30.83;10.07;;;-1.90;66.40;;;;;;4160973;28;20037;-68
2021/12/27 09:32:34;;;;;;;28.98;10.23;;;-1.80;66.50;;;;;;4162600;28;20058;-68
2021/12/27 09:34:34;;;;;;;28.40;10.55;;;-1.80;66.50;;;;;;4161046;28;20033;-68
2021/12/27 09:36:35;;;;;;;34.30;11.07;;;-1.80;66.60;;;;;;4161096;28;20140;-68
2021/12/27 09:38:35;;;;;;;34.10;10.57;;;-1.80;66.60;;;;;;4162454;28;20116;-68
2021/12/27 09:40:36;;;;;;;29.75;10.25;;;-1.80;66.60;;;;;;4163245;28;20119;-68
2021/12/27 09:42:37;;;;;;;32.38;10.80;;;-1.70;66.70;;;;;;4158630;28;20051;-68
2021/12/27 09:44:37;;;;;;;33.17;10.90;;;-1.70;66.70;;;;;;4156533;28;20100;-67
2021/12/27 09:46:38;;;;;;;33.60;12.32;;;-1.70;66.70;;;;;;4164758;28;20021;-66
2021/12/27 09:48:39;;;;;;;46.35;16.10;;;-1.70;66.70;;;;;;4162929;28;20663;-69
2021/12/27 09:50:46;;;;;;;47.05;15.40;;;-1.70;66.70;;;;;;4149658;28;20033;-69
2021/12/27 09:52:47;;;;;;;32.75;12.52;;;-1.60;66.70;;;;;;4163511;28;20025;-69
2021/12/27 09:54:47;;;;;;;33.92;12.10;;;-1.60;66.80;;;;;;4162625;28;20033;-67
2021/12/27 09:56:48;;;;;;;41.95;11.98;;;-1.60;66.90;;;;;;4163611;28;20075;-67
2021/12/27 09:58:48;;;;;;;31.38;11.40;;;-1.60;67.10;;;;;;4163891;28;20033;-67
2021/12/27 10:00:49;;;;;;;37.45;11.18;;;-1.50;67.00;;;;;;4161662;28;20048;-67
2021/12/27 10:02:52;;;;;;;31.70;10.82;;;-1.50;67.00;;;;;;4162716;28;20026;-67
2021/12/27 10:04:53;;;;;;;41.03;12.68;;;-1.50;67.10;;;;;;4162992;28;20029;-67
2021/12/27 10:06:55;;;;;;;36.88;12.32;;;-1.50;67.20;;;;;;4163668;28;20017;-67
2021/12/27 10:08:57;;;;;;;31.77;11.50;;;-1.50;67.30;;;;;;4164180;28;20706;-67
2021/12/27 10:10:58;;;;;;;45.72;13.50;;;-1.50;67.30;;;;;;4163580;28;20440;-67
2021/12/27 10:12:58;;;;;;;35.67;12.65;;;-1.50;67.30;;;;;;4161153;28;20041;-67
2021/12/27 10:15:00;;;;;;;28.33;10.43;;;-1.50;67.50;;;;;;4163946;28;20049;-67
2021/12/27 10:17:10;;;;;;;36.22;12.05;;;-1.40;67.70;;;;;;4161636;28;20112;-67
2021/12/27 10:19:11;;;;;;;36.08;12.43;;;-1.40;67.70;;;;;;4165054;28;20113;-67
2021/12/27 10:21:14;;;;;;;33.65;11.60;;;-1.40;67.70;;;;;;4159160;28;20388;-68
2021/12/27 10:23:18;;;;;;;36.30;12.45;;;-1.40;67.80;;;;;;4155180;28;20099;-68
2021/12/27 10:25:24;;;;;;;31.80;11.70;;;-1.40;67.90;;;;;;4161040;28;20021;-67
2021/12/27 10:27:31;;;;;;;33.63;11.70;;;-1.40;68.00;;;;;;4162999;28;20025;-67
2021/12/27 10:29:33;;;;;;;46.88;15.27;;;-1.40;68.10;;;;;;4158350;28;20096;-67
2021/12/27 10:32:14;;;;;;;37.30;14.02;;;-1.40;68.30;;;;;;4161050;28;20067;-67
2021/12/27 10:34:15;;;;;;;37.63;12.95;;;-1.40;68.40;;;;;;4169884;28;20060;-67